Time;durP1;ratioP1;P1;durP2;ratioP2;P2;SDS_P1;SDS_P2;PMS_P1;PMS_P2;Temp;Humidity;BMP_temperature;BMP_pressure;BME280_temperature;BME280_humidity;BME280_pressure;Samples;Min_cycle;Max_cycle;Signal;HPM_P1;HPM_P2
2022/09/08 00:01:09;;;;;;;12.00;11.00;;;16.90;99.90;;;;;;5042663;28;20547;-50
2022/09/08 00:03:36;;;;;;;14.87;13.37;;;16.90;99.90;;;;;;5038934;28;20274;-47
2022/09/08 00:06:07;;;;;;;13.30;11.97;;;16.80;99.90;;;;;;5050894;28;20531;-49
2022/09/08 00:08:35;;;;;;;13.50;12.30;;;16.70;99.90;;;;;;5059288;28;20179;-48
2022/09/08 00:11:05;;;;;;;12.77;11.57;;;16.70;99.90;;;;;;5056503;28;20558;-50
2022/09/08 00:13:33;;;;;;;13.37;12.03;;;16.70;99.90;;;;;;5034412;28;20223;-49
2022/09/08 00:16:03;;;;;;;13.83;12.10;;;16.70;99.90;;;;;;5043848;28;20203;-49
2022/09/08 00:18:30;;;;;;;13.53;12.27;;;16.60;99.90;;;;;;5039301;28;20214;-48
2022/09/08 00:20:56;;;;;;;15.30;13.73;;;16.60;99.90;;;;;;5049427;28;20186;-49
2022/09/08 00:23:23;;;;;;;14.20;12.73;;;16.60;99.90;;;;;;5044131;28;20219;-49
2022/09/08 00:25:51;;;;;;;13.13;11.83;;;16.60;99.90;;;;;;5047366;28;20670;-47
2022/09/08 00:28:18;;;;;;;14.90;12.50;;;16.60;99.90;;;;;;5047019;28;20199;-52
2022/09/08 00:30:45;;;;;;;13.33;11.97;;;16.60;99.90;;;;;;5046603;28;20213;-51
2022/09/08 00:33:12;;;;;;;13.57;12.40;;;16.60;99.90;;;;;;5057291;28;20233;-47
2022/09/08 00:35:42;;;;;;;14.57;12.87;;;16.60;99.90;;;;;;5057181;28;20704;-48
2022/09/08 00:38:09;;;;;;;14.90;13.30;;;16.60;99.90;;;;;;5047007;28;20191;-50
2022/09/08 00:40:44;;;;;;;14.37;12.80;;;16.50;99.90;;;;;;5049367;28;20187;-48
2022/09/08 00:43:30;;;;;;;13.23;12.00;;;16.50;99.90;;;;;;5056183;28;20283;-51
2022/09/08 00:45:59;;;;;;;13.07;11.87;;;16.50;99.90;;;;;;5036940;28;20273;-51
2022/09/08 00:48:26;;;;;;;14.00;12.73;;;16.50;99.90;;;;;;5043398;28;20235;-52
2022/09/08 00:50:54;;;;;;;13.10;12.00;;;16.40;99.90;;;;;;5053890;28;20232;-47
2022/09/08 00:53:21;;;;;;;14.17;12.87;;;16.40;99.90;;;;;;5050473;28;20298;-51
2022/09/08 00:55:48;;;;;;;14.37;11.97;;;16.40;99.90;;;;;;5065567;28;20202;-47
2022/09/08 00:58:17;;;;;;;13.67;12.47;;;16.30;99.90;;;;;;5049006;28;20672;-51
2022/09/08 01:00:44;;;;;;;13.67;12.27;;;16.30;99.90;;;;;;5043063;28;20207;-48
2022/09/08 01:03:15;;;;;;;13.90;12.53;;;16.30;99.90;;;;;;5045017;28;20226;-50
2022/09/08 01:05:49;;;;;;;13.97;12.53;;;16.30;99.90;;;;;;5045979;28;20182;-49
2022/09/08 01:14:05;;;;;;;13.13;11.93;;;16.20;99.90;;;;;;5049734;28;20210;-46
2022/09/08 01:16:39;;;;;;;12.57;11.37;;;16.20;99.90;;;;;;5023877;28;20352;-51
2022/09/08 01:19:08;;;;;;;12.90;11.60;;;16.20;99.90;;;;;;5045387;28;20282;-48
2022/09/08 01:21:44;;;;;;;13.67;12.27;;;16.20;99.90;;;;;;5051039;28;20206;-46
2022/09/08 01:24:32;;;;;;;14.50;13.00;;;16.10;99.90;;;;;;5057669;28;20214;-46
2022/09/08 01:27:13;;;;;;;12.80;11.53;;;16.10;99.90;;;;;;5040886;28;20195;-45
2022/09/08 01:29:41;;;;;;;13.93;12.63;;;16.10;99.90;;;;;;5022661;28;20273;-52
2022/09/08 01:32:10;;;;;;;13.13;11.93;;;16.00;99.90;;;;;;5040564;28;20203;-46
2022/09/08 01:34:39;;;;;;;13.63;12.37;;;16.00;99.90;;;;;;5050322;28;20429;-47
2022/09/08 01:37:06;;;;;;;12.83;11.63;;;16.00;99.90;;;;;;5045010;28;20253;-49
2022/09/08 01:39:33;;;;;;;13.67;12.47;;;16.00;99.90;;;;;;5041679;28;20194;-50
2022/09/08 01:42:00;;;;;;;12.93;11.57;;;15.90;99.90;;;;;;5044952;28;20668;-47
2022/09/08 01:44:29;;;;;;;14.27;12.97;;;15.90;99.90;;;;;;5040629;28;20255;-50
2022/09/08 01:46:56;;;;;;;13.73;12.43;;;15.90;99.90;;;;;;5041843;28;20210;-49
2022/09/08 01:49:23;;;;;;;13.47;12.17;;;15.90;99.90;;;;;;5032924;28;20727;-47
2022/09/08 01:51:51;;;;;;;13.13;11.90;;;15.80;99.90;;;;;;5046778;28;20302;-50
2022/09/08 01:54:18;;;;;;;18.93;12.63;;;15.80;99.90;;;;;;5041829;28;20211;-52
2022/09/08 01:56:45;;;;;;;13.27;12.07;;;15.80;99.90;;;;;;5043156;28;20190;-47
2022/09/08 01:59:11;;;;;;;13.10;11.87;;;15.80;99.90;;;;;;5054064;28;20272;-48
2022/09/08 02:01:39;;;;;;;12.03;10.90;;;15.80;99.90;;;;;;5038221;28;20301;-46
2022/09/08 02:04:06;;;;;;;13.17;11.93;;;15.80;99.90;;;;;;5030990;28;20643;-49
2022/09/08 02:06:33;;;;;;;12.07;10.87;;;15.80;99.90;;;;;;5039355;28;20253;-46
2022/09/08 02:09:00;;;;;;;13.30;12.00;;;15.80;99.90;;;;;;5047994;28;20197;-50
2022/09/08 02:11:26;;;;;;;12.43;11.23;;;15.70;99.90;;;;;;5060353;28;20214;-50
2022/09/08 02:13:53;;;;;;;12.30;11.10;;;15.70;99.90;;;;;;5060011;28;20215;-51
2022/09/08 02:16:20;;;;;;;13.53;12.23;;;15.60;99.90;;;;;;5043721;28;20196;-50
2022/09/08 02:18:48;;;;;;;11.60;10.60;;;15.60;99.90;;;;;;5031978;28;20618;-51
2022/09/08 02:21:17;;;;;;;12.60;11.33;;;15.60;99.90;;;;;;4991933;28;1470960;-50
2022/09/08 02:23:46;;;;;;;12.07;10.87;;;15.60;99.90;;;;;;5043958;28;20302;-48
2022/09/08 02:26:19;;;;;;;13.83;12.37;;;15.60;99.90;;;;;;5064469;28;20652;-46
2022/09/08 02:28:47;;;;;;;13.67;12.37;;;15.50;99.90;;;;;;5061992;28;20179;-49
2022/09/08 02:31:14;;;;;;;14.13;12.53;;;15.50;99.90;;;;;;5055994;28;20245;-49
2022/09/08 02:33:42;;;;;;;15.90;12.90;;;15.40;99.90;;;;;;5045085;28;20223;-47
2022/09/08 02:36:10;;;;;;;12.63;11.33;;;15.40;99.90;;;;;;5032011;28;20358;-48
2022/09/08 02:38:37;;;;;;;13.30;12.00;;;15.40;99.90;;;;;;5040911;28;20955;-48
2022/09/08 02:41:06;;;;;;;13.57;12.17;;;15.30;99.90;;;;;;5061180;28;20667;-47
2022/09/08 02:43:33;;;;;;;12.70;11.50;;;15.30;99.90;;;;;;5058053;28;20218;-48
2022/09/08 02:46:05;;;;;;;13.17;11.97;;;15.30;99.90;;;;;;5050219;28;20245;-48
2022/09/08 02:48:32;;;;;;;12.23;11.03;;;15.30;99.90;;;;;;5045892;28;20198;-47
2022/09/08 02:51:00;;;;;;;12.57;11.47;;;15.20;99.90;;;;;;5035727;28;20219;-49
2022/09/08 02:53:29;;;;;;;12.63;11.20;;;15.20;99.90;;;;;;5039659;28;20692;-47
2022/09/08 02:55:57;;;;;;;12.33;10.90;;;15.20;99.90;;;;;;5060767;28;20640;-51
2022/09/08 02:58:25;;;;;;;11.23;10.23;;;15.20;99.90;;;;;;5061019;28;20191;-47
2022/09/08 03:00:52;;;;;;;11.10;10.00;;;15.20;99.90;;;;;;5054028;28;20194;-46
2022/09/08 03:03:19;;;;;;;11.67;10.50;;;15.20;99.90;;;;;;5058225;28;20283;-50
2022/09/08 03:05:46;;;;;;;11.77;10.73;;;15.00;99.90;;;;;;5042094;28;20212;-47
2022/09/08 03:08:13;;;;;;;10.77;9.73;;;15.00;99.90;;;;;;5042784;28;20191;-52
2022/09/08 03:10:41;;;;;;;10.57;9.50;;;15.00;99.90;;;;;;5042748;28;20242;-53
2022/09/08 03:13:09;;;;;;;10.67;9.67;;;15.00;99.90;;;;;;5043694;28;20207;-49
2022/09/08 03:15:36;;;;;;;11.03;9.93;;;14.90;99.90;;;;;;5045341;28;20198;-47
2022/09/08 03:18:04;;;;;;;10.23;9.23;;;14.90;99.90;;;;;;5064256;28;20214;-50
2022/09/08 03:20:32;;;;;;;11.37;9.83;;;14.90;99.90;;;;;;5037484;28;20291;-51
2022/09/08 03:23:00;;;;;;;11.03;9.30;;;14.90;99.90;;;;;;5043082;28;20219;-47
2022/09/08 03:25:27;;;;;;;10.23;9.23;;;14.90;99.90;;;;;;5042087;28;20207;-48
2022/09/08 03:27:55;;;;;;;10.80;9.57;;;14.80;99.90;;;;;;5043316;28;20274;-50
2022/09/08 03:30:23;;;;;;;13.87;10.23;;;14.80;99.90;;;;;;5050583;28;20195;-47
2022/09/08 03:32:50;;;;;;;11.50;9.53;;;14.80;99.90;;;;;;5022894;28;20203;-48
2022/09/08 03:35:19;;;;;;;10.57;9.67;;;14.80;99.90;;;;;;5049519;28;20235;-48
2022/09/08 03:37:46;;;;;;;10.20;9.17;;;14.70;99.90;;;;;;5035963;28;20209;-50
2022/09/08 03:40:16;;;;;;;15.23;9.80;;;14.80;99.90;;;;;;5043069;28;20195;-50
2022/09/08 03:42:44;;;;;;;10.00;9.03;;;14.80;99.90;;;;;;5041435;28;20210;-50
2022/09/08 03:45:15;;;;;;;11.27;8.63;;;14.80;99.90;;;;;;5043656;28;20199;-51
2022/09/08 03:47:42;;;;;;;11.80;9.60;;;14.80;99.90;;;;;;5021609;28;20873;-48
2022/09/08 03:50:10;;;;;;;9.30;8.40;;;14.80;99.90;;;;;;5039389;28;20226;-51
2022/09/08 03:52:37;;;;;;;8.87;8.17;;;14.80;99.90;;;;;;5032166;28;20296;-50
2022/09/08 03:55:05;;;;;;;9.70;8.80;;;14.80;99.90;;;;;;5052853;28;20210;-50
2022/09/08 03:57:32;;;;;;;11.83;8.83;;;14.80;99.90;;;;;;5058586;28;20823;-48
2022/09/08 04:00:00;;;;;;;9.23;8.23;;;14.80;99.90;;;;;;5049759;28;20203;-48
2022/09/08 04:02:31;;;;;;;11.77;9.03;;;14.80;99.90;;;;;;5036437;28;20265;-47
2022/09/08 04:04:59;;;;;;;10.33;9.23;;;14.70;99.90;;;;;;5036235;28;20226;-49
2022/09/08 04:07:29;;;;;;;11.23;8.50;;;14.70;99.90;;;;;;5033223;28;20211;-49
2022/09/08 04:09:57;;;;;;;9.87;8.97;;;14.70;99.90;;;;;;5039303;28;20183;-48
2022/09/08 04:12:24;;;;;;;8.10;7.43;;;14.70;99.90;;;;;;5042133;28;20257;-47
2022/09/08 04:14:52;;;;;;;8.87;8.13;;;14.60;99.90;;;;;;5042466;28;20219;-49
2022/09/08 04:17:20;;;;;;;11.40;8.30;;;14.60;99.90;;;;;;5061438;28;20194;-47
2022/09/08 04:19:50;;;;;;;8.40;7.60;;;14.60;99.90;;;;;;5045522;28;20207;-49
2022/09/08 04:22:17;;;;;;;9.13;8.20;;;14.70;99.90;;;;;;5028542;28;20214;-49
2022/09/08 04:24:44;;;;;;;8.43;7.33;;;14.70;99.90;;;;;;5037540;28;20219;-48
2022/09/08 04:27:11;;;;;;;8.53;7.63;;;14.60;99.90;;;;;;5040547;28;20206;-45
2022/09/08 04:29:38;;;;;;;8.37;7.67;;;14.60;99.90;;;;;;5044114;28;20927;-46
2022/09/08 04:32:07;;;;;;;9.23;7.20;;;14.60;99.90;;;;;;5057943;28;20210;-51
2022/09/08 04:34:35;;;;;;;11.50;7.60;;;14.60;99.90;;;;;;5047360;28;20217;-49
2022/09/08 04:37:03;;;;;;;12.40;7.90;;;14.60;99.90;;;;;;5042166;28;20307;-47
2022/09/08 04:39:30;;;;;;;7.80;7.20;;;14.60;99.90;;;;;;5025491;28;20211;-45
2022/09/08 04:41:57;;;;;;;7.80;7.03;;;14.60;99.90;;;;;;5040489;28;20210;-47
2022/09/08 04:44:24;;;;;;;7.47;6.87;;;14.60;99.90;;;;;;5042083;28;20502;-46
2022/09/08 04:46:51;;;;;;;7.90;7.20;;;14.60;99.90;;;;;;5048359;28;20198;-46
2022/09/08 04:49:18;;;;;;;9.33;6.93;;;14.60;99.90;;;;;;5034570;28;20208;-48
2022/09/08 04:51:45;;;;;;;6.80;6.20;;;14.60;99.90;;;;;;5046044;28;20242;-48
2022/09/08 04:54:14;;;;;;;6.93;6.20;;;14.60;99.90;;;;;;5030943;28;20298;-49
2022/09/08 04:56:40;;;;;;;8.70;6.47;;;14.60;99.90;;;;;;5047006;28;20683;-48
2022/09/08 04:59:07;;;;;;;9.97;7.00;;;14.60;99.90;;;;;;5055006;28;20500;-50
2022/09/08 05:01:36;;;;;;;7.50;6.80;;;14.60;99.90;;;;;;5042096;28;20202;-47
2022/09/08 05:04:03;;;;;;;6.63;6.03;;;14.60;99.90;;;;;;5041424;28;20296;-48
2022/09/08 05:06:33;;;;;;;10.23;6.77;;;14.70;99.90;;;;;;5055774;28;20198;-49
2022/09/08 05:09:01;;;;;;;10.07;7.10;;;14.60;99.90;;;;;;5026129;28;20317;-47
2022/09/08 05:11:31;;;;;;;7.07;6.40;;;14.70;99.90;;;;;;5041996;28;20214;-52
2022/09/08 05:13:59;;;;;;;6.90;6.30;;;14.60;99.90;;;;;;5042935;28;20915;-50
2022/09/08 05:16:27;;;;;;;7.13;6.27;;;14.60;99.90;;;;;;5046239;28;20207;-47
2022/09/08 05:18:56;;;;;;;8.07;6.80;;;14.70;99.90;;;;;;5055186;28;20206;-48
2022/09/08 05:21:24;;;;;;;6.13;5.53;;;14.70;99.90;;;;;;5050070;28;21929;-48
2022/09/08 05:23:52;;;;;;;7.97;5.83;;;14.60;99.90;;;;;;5028291;28;23164;-49
2022/09/08 05:26:20;;;;;;;7.00;6.03;;;14.70;99.90;;;;;;5036504;28;20207;-48
2022/09/08 05:28:49;;;;;;;7.10;5.83;;;14.60;99.90;;;;;;5039237;28;20257;-50
2022/09/08 05:31:18;;;;;;;6.57;5.97;;;14.70;99.90;;;;;;5048133;28;20216;-51
2022/09/08 05:33:45;;;;;;;7.80;5.87;;;14.70;99.90;;;;;;5047393;28;20219;-48
2022/09/08 05:36:14;;;;;;;7.07;6.10;;;14.70;99.90;;;;;;5046667;28;20204;-51
2022/09/08 05:38:41;;;;;;;7.13;6.50;;;14.70;99.90;;;;;;5050064;28;20213;-49
2022/09/08 05:41:09;;;;;;;6.77;6.03;;;14.70;99.90;;;;;;5038107;28;20207;-49
2022/09/08 05:43:36;;;;;;;6.40;5.27;;;14.70;99.90;;;;;;5048500;28;20221;-51
2022/09/08 05:46:04;;;;;;;5.93;5.40;;;14.70;99.90;;;;;;5048172;28;20190;-47
2022/09/08 05:48:32;;;;;;;6.17;5.37;;;14.80;99.90;;;;;;5042229;28;20685;-49
2022/09/08 05:50:59;;;;;;;10.47;6.03;;;14.80;99.90;;;;;;5042822;28;20199;-49
2022/09/08 05:53:28;;;;;;;6.47;5.80;;;14.90;99.90;;;;;;5040747;28;20254;-49
2022/09/08 05:55:57;;;;;;;5.90;5.03;;;14.90;99.90;;;;;;5033964;28;20199;-48
2022/09/08 05:58:24;;;;;;;8.40;5.20;;;14.90;99.90;;;;;;5035543;28;20273;-49
2022/09/08 06:00:59;;;;;;;6.20;5.53;;;14.90;99.90;;;;;;5041812;28;20202;-50
2022/09/08 06:03:28;;;;;;;6.00;5.40;;;15.00;99.90;;;;;;5038269;28;20310;-49
2022/09/08 06:05:55;;;;;;;6.57;5.57;;;15.00;99.90;;;;;;5062529;28;20198;-49
2022/09/08 06:08:23;;;;;;;6.47;5.03;;;15.00;99.90;;;;;;5053079;28;20194;-47
2022/09/08 06:10:52;;;;;;;6.10;4.87;;;15.10;99.90;;;;;;5052508;28;20202;-52
2022/09/08 06:13:21;;;;;;;6.47;4.87;;;15.10;99.90;;;;;;5026794;28;20231;-47
2022/09/08 06:15:49;;;;;;;6.33;5.20;;;15.10;99.90;;;;;;5041681;28;20264;-49
2022/09/08 06:18:16;;;;;;;7.63;5.47;;;15.10;99.90;;;;;;5039143;28;20235;-48
2022/09/08 06:20:44;;;;;;;5.43;4.93;;;15.20;99.90;;;;;;5041885;28;20571;-49
2022/09/08 06:23:11;;;;;;;6.57;4.80;;;15.20;99.90;;;;;;5040870;28;20223;-51
2022/09/08 06:25:43;;;;;;;6.90;4.70;;;15.20;99.90;;;;;;5043232;28;20192;-52
2022/09/08 06:28:30;;;;;;;5.17;4.70;;;15.30;99.90;;;;;;5030509;28;20578;-51
2022/09/08 06:30:57;;;;;;;5.80;5.23;;;15.30;99.90;;;;;;5044420;28;20191;-52
2022/09/08 06:33:30;;;;;;;5.63;4.60;;;15.30;99.90;;;;;;5039764;28;20234;-48
2022/09/08 06:36:09;;;;;;;4.80;4.40;;;15.40;99.90;;;;;;5044992;28;20191;-51
2022/09/08 06:38:42;;;;;;;5.67;4.97;;;15.40;99.90;;;;;;5043092;28;20186;-50
2022/09/08 06:41:12;;;;;;;5.73;5.00;;;15.40;99.90;;;;;;5043052;28;20198;-52
2022/09/08 06:43:42;;;;;;;5.83;4.63;;;15.50;99.90;;;;;;5030159;28;20219;-48
2022/09/08 06:46:17;;;;;;;5.27;4.77;;;15.60;99.90;;;;;;5037856;28;20257;-54
2022/09/08 06:48:44;;;;;;;7.47;4.23;;;15.60;99.90;;;;;;5039034;28;20199;-51
2022/09/08 06:51:26;;;;;;;5.17;4.67;;;15.60;99.90;;;;;;5049826;28;20233;-48
2022/09/08 06:54:02;;;;;;;5.73;4.60;;;15.70;99.90;;;;;;5039943;28;20218;-48
2022/09/08 06:56:40;;;;;;;5.87;4.57;;;15.70;99.90;;;;;;5037442;28;20562;-51
2022/09/08 06:59:10;;;;;;;8.37;4.70;;;15.70;99.90;;;;;;5031049;28;20676;-50
2022/09/08 07:01:45;;;;;;;5.73;4.57;;;15.70;99.90;;;;;;5037930;28;20893;-51
2022/09/08 07:04:28;;;;;;;4.70;4.17;;;15.80;99.90;;;;;;5027419;28;20298;-48
2022/09/08 07:07:01;;;;;;;6.43;4.20;;;15.80;99.90;;;;;;5043943;28;20654;-51
2022/09/08 07:09:37;;;;;;;6.03;4.47;;;15.80;99.90;;;;;;5052314;28;20199;-49
2022/09/08 07:12:21;;;;;;;8.00;4.23;;;15.80;99.90;;;;;;5048817;28;20230;-47
2022/09/08 07:15:11;;;;;;;4.70;3.80;;;15.90;99.90;;;;;;5031065;28;20310;-51
2022/09/08 07:17:45;;;;;;;5.87;3.63;;;15.90;99.90;;;;;;5038730;28;20349;-52
2022/09/08 07:20:13;;;;;;;5.43;4.10;;;15.90;99.90;;;;;;5040555;28;20252;-48
2022/09/08 07:22:48;;;;;;;4.00;3.60;;;15.90;99.90;;;;;;5034176;28;20679;-49
2022/09/08 07:25:19;;;;;;;5.90;3.13;;;16.00;99.90;;;;;;5038945;28;20206;-53
2022/09/08 07:27:52;;;;;;;4.47;3.27;;;16.00;99.90;;;;;;5029366;28;20195;-50
2022/09/08 07:30:19;;;;;;;6.03;3.97;;;16.10;99.90;;;;;;5040241;28;20207;-53
2022/09/08 07:32:50;;;;;;;5.57;3.80;;;16.10;99.90;;;;;;5041342;28;20250;-52
2022/09/08 07:35:26;;;;;;;4.80;3.13;;;16.10;99.90;;;;;;5039155;28;20199;-48
2022/09/08 07:37:57;;;;;;;4.03;3.27;;;16.20;99.90;;;;;;5039214;28;20591;-50
2022/09/08 07:40:41;;;;;;;4.20;3.50;;;16.30;99.90;;;;;;5042115;28;20203;-50
2022/09/08 07:43:11;;;;;;;5.97;4.00;;;16.30;99.90;;;;;;5022490;28;20285;-51
2022/09/08 07:45:42;;;;;;;3.67;3.37;;;16.30;99.90;;;;;;5033408;28;20194;-52
2022/09/08 07:48:19;;;;;;;4.40;3.60;;;16.40;99.90;;;;;;5037718;28;20932;-48
2022/09/08 07:50:56;;;;;;;6.03;3.47;;;16.40;99.90;;;;;;5040942;28;20195;-51
2022/09/08 07:53:45;;;;;;;7.13;3.40;;;16.40;99.90;;;;;;5038202;28;20219;-47
2022/09/08 07:56:15;;;;;;;4.10;3.07;;;16.40;99.90;;;;;;5039681;28;21023;-49
2022/09/08 07:58:54;;;;;;;3.87;3.40;;;16.40;99.90;;;;;;5029224;28;20209;-54
2022/09/08 08:01:34;;;;;;;5.53;3.10;;;16.50;99.90;;;;;;5032026;28;20214;-50
2022/09/08 08:04:16;;;;;;;4.83;3.40;;;16.50;99.90;;;;;;5036702;28;20956;-52
2022/09/08 08:06:49;;;;;;;4.23;3.20;;;16.50;99.90;;;;;;5042917;28;20202;-53
2022/09/08 08:09:29;;;;;;;5.87;3.43;;;16.50;99.90;;;;;;5043832;28;20239;-51
2022/09/08 08:12:06;;;;;;;3.30;3.00;;;16.50;99.90;;;;;;5035281;28;20682;-49
2022/09/08 08:14:40;;;;;;;5.70;2.93;;;16.50;99.90;;;;;;5046748;28;20235;-50
2022/09/08 08:17:32;;;;;;;5.30;3.53;;;16.50;99.90;;;;;;5029279;28;20190;-52
2022/09/08 08:20:15;;;;;;;3.00;2.70;;;16.50;99.90;;;;;;5036135;28;20931;-53
2022/09/08 08:23:14;;;;;;;7.30;3.50;;;16.50;99.90;;;;;;5040003;28;20199;-49
2022/09/08 08:25:49;;;;;;;7.53;3.30;;;16.50;99.90;;;;;;5042822;28;20210;-50
2022/09/08 08:28:19;;;;;;;3.20;2.73;;;16.50;99.90;;;;;;5049140;28;20214;-51
2022/09/08 08:30:55;;;;;;;6.57;3.07;;;16.60;99.90;;;;;;5027077;28;20622;-53
2022/09/08 08:33:26;;;;;;;6.37;3.03;;;16.60;99.90;;;;;;5039994;28;20679;-48
2022/09/08 08:35:55;;;;;;;6.13;3.10;;;16.60;99.90;;;;;;5035843;28;20206;-52
2022/09/08 08:38:26;;;;;;;5.27;3.10;;;16.60;99.90;;;;;;5041494;28;20196;-54
2022/09/08 08:40:59;;;;;;;4.83;3.00;;;16.60;99.90;;;;;;5023965;28;20482;-54
2022/09/08 08:43:56;;;;;;;4.47;2.63;;;16.60;99.90;;;;;;5029943;28;20219;-50
2022/09/08 08:46:36;;;;;;;4.83;2.90;;;16.50;99.90;;;;;;5028023;28;20233;-51
2022/09/08 08:49:21;;;;;;;4.70;2.87;;;16.50;99.90;;;;;;5034470;28;20202;-51
2022/09/08 08:52:02;;;;;;;3.40;2.63;;;16.50;99.90;;;;;;5039889;28;20588;-53
2022/09/08 08:54:44;;;;;;;7.93;2.97;;;16.50;99.90;;;;;;5042087;28;20588;-51
2022/09/08 08:57:26;;;;;;;2.30;2.10;;;16.40;99.90;;;;;;5040700;28;20842;-52
2022/09/08 09:00:08;;;;;;;3.73;2.50;;;16.50;99.90;;;;;;5052960;28;20218;-53
2022/09/08 09:02:53;;;;;;;3.87;2.80;;;16.40;99.90;;;;;;5029517;28;20544;-53
2022/09/08 09:05:43;;;;;;;4.63;2.50;;;16.40;99.90;;;;;;5041983;28;20590;-50
2022/09/08 09:08:45;;;;;;;3.50;2.30;;;16.40;99.90;;;;;;5040912;28;20274;-50
2022/09/08 09:11:51;;;;;;;3.90;2.27;;;16.50;99.90;;;;;;5042462;28;20289;-51
2022/09/08 09:14:48;;;;;;;2.53;2.30;;;16.50;99.90;;;;;;5038316;28;20230;-52
2022/09/08 09:17:37;;;;;;;2.60;2.40;;;16.40;99.90;;;;;;5034873;28;20219;-48
2022/09/08 09:20:28;;;;;;;4.87;2.63;;;16.40;99.90;;;;;;5040633;28;20190;-50
2022/09/08 09:23:01;;;;;;;5.37;1.90;;;16.50;99.90;;;;;;5034091;28;20190;-51
2022/09/08 09:25:33;;;;;;;4.57;2.30;;;16.50;99.90;;;;;;5043415;28;20184;-49
2022/09/08 09:28:23;;;;;;;3.57;2.60;;;16.50;99.90;;;;;;5033445;28;21449;-52
2022/09/08 09:31:02;;;;;;;5.13;2.60;;;16.60;99.90;;;;;;5032844;28;20199;-52
2022/09/08 09:33:53;;;;;;;2.63;2.43;;;16.70;99.90;;;;;;5036153;28;20246;-51
2022/09/08 09:36:43;;;;;;;6.03;2.23;;;16.80;99.90;;;;;;5041669;28;20207;-50
2022/09/08 09:39:32;;;;;;;7.03;3.57;;;16.80;99.90;;;;;;5052521;28;20203;-48
2022/09/08 09:42:23;;;;;;;3.07;2.43;;;16.90;99.90;;;;;;5041463;28;20925;-47
2022/09/08 09:45:20;;;;;;;5.37;2.43;;;17.10;99.90;;;;;;5041355;28;20242;-52
2022/09/08 09:48:20;;;;;;;4.80;2.50;;;17.20;99.90;;;;;;5029492;28;20214;-50
2022/09/08 09:51:14;;;;;;;4.07;2.60;;;17.30;99.90;;;;;;5036071;28;20199;-50
2022/09/08 09:54:00;;;;;;;4.93;2.70;;;17.40;99.90;;;;;;5046394;28;20230;-50
2022/09/08 09:56:59;;;;;;;6.40;2.20;;;17.40;99.90;;;;;;5060118;28;20203;-52
2022/09/08 10:00:03;;;;;;;3.07;2.40;;;17.60;99.90;;;;;;5048291;28;20822;-47
2022/09/08 10:03:10;;;;;;;4.13;2.40;;;17.70;99.90;;;;;;5043490;28;20280;-53
2022/09/08 10:06:14;;;;;;;5.90;2.47;;;17.70;99.90;;;;;;5039331;28;20286;-50
2022/09/08 10:09:19;;;;;;;4.40;2.40;;;17.70;99.90;;;;;;5036790;28;20219;-53
2022/09/08 10:12:15;;;;;;;3.93;2.90;;;17.80;99.90;;;;;;5044715;28;20198;-54
2022/09/08 10:15:29;;;;;;;2.63;2.43;;;17.80;99.90;;;;;;5039556;28;20254;-52
2022/09/08 10:18:33;;;;;;;2.83;2.47;;;17.80;99.90;;;;;;5034110;28;20190;-50
2022/09/08 10:21:30;;;;;;;3.80;2.80;;;17.80;99.90;;;;;;5026872;28;20203;-50
2022/09/08 10:24:24;;;;;;;3.30;2.70;;;17.90;99.90;;;;;;5041442;28;20198;-50
2022/09/08 10:27:35;;;;;;;6.90;2.97;;;17.90;99.90;;;;;;5052584;28;20203;-54
2022/09/08 10:30:39;;;;;;;4.77;2.87;;;17.90;99.90;;;;;;5047144;28;20197;-53
2022/09/08 10:33:26;;;;;;;6.47;2.80;;;17.80;99.90;;;;;;5043716;28;20226;-50
2022/09/08 10:35:53;;;;;;;8.77;3.30;;;17.80;99.90;;;;;;5026603;28;20215;-50
2022/09/08 10:38:44;;;;;;;6.30;2.83;;;17.90;99.90;;;;;;5044166;28;20210;-47
2022/09/08 10:41:47;;;;;;;4.60;2.93;;;17.90;99.90;;;;;;5048317;28;20198;-48
2022/09/08 10:44:43;;;;;;;5.23;3.00;;;17.90;99.90;;;;;;5030364;28;20219;-48
2022/09/08 10:47:44;;;;;;;3.97;3.00;;;17.90;99.90;;;;;;5038302;28;20360;-49
2022/09/08 10:50:19;;;;;;;3.23;2.70;;;17.90;99.90;;;;;;5039525;28;21152;-49
2022/09/08 10:53:25;;;;;;;3.70;3.00;;;17.90;99.90;;;;;;5048009;28;20194;-49
2022/09/08 10:56:01;;;;;;;4.00;2.67;;;17.80;99.90;;;;;;5037221;28;20257;-50
2022/09/08 10:58:59;;;;;;;3.23;3.00;;;17.80;99.90;;;;;;5038436;28;20203;-51
2022/09/08 11:01:50;;;;;;;10.33;3.30;;;17.70;99.90;;;;;;5042588;28;20210;-49
2022/09/08 11:04:49;;;;;;;4.60;3.00;;;17.70;99.90;;;;;;5049100;28;20226;-52
2022/09/08 11:07:36;;;;;;;3.03;2.60;;;17.60;99.90;;;;;;5038289;28;20211;-49
2022/09/08 11:10:16;;;;;;;5.77;3.30;;;17.60;99.90;;;;;;5040849;28;20182;-52
2022/09/08 11:12:59;;;;;;;8.43;4.43;;;17.50;99.90;;;;;;5048578;28;20237;-51
2022/09/08 11:15:51;;;;;;;6.37;4.47;;;17.20;99.90;;;;;;5046322;28;20199;-53
2022/09/08 11:18:48;;;;;;;9.23;5.03;;;16.80;99.90;;;;;;5042811;28;20226;-50
2022/09/08 11:21:22;;;;;;;9.10;4.60;;;16.60;99.90;;;;;;5027132;28;20733;-50
2022/09/08 11:24:04;;;;;;;8.60;5.23;;;16.30;99.90;;;;;;5043482;28;20576;-52
2022/09/08 11:26:48;;;;;;;7.43;5.13;;;16.10;99.90;;;;;;5044232;28;20195;-49
2022/09/08 11:29:18;;;;;;;7.57;5.40;;;16.00;99.90;;;;;;5054147;28;20198;-52
2022/09/08 11:31:57;;;;;;;7.03;4.90;;;15.90;99.90;;;;;;5049920;28;20203;-53
2022/09/08 11:34:39;;;;;;;8.27;5.50;;;15.90;99.90;;;;;;5045578;28;20451;-50
2022/09/08 11:38:02;;;;;;;9.50;5.13;;;15.90;99.90;;;;;;5033437;28;20207;-50
2022/09/08 11:40:57;;;;;;;10.03;5.67;;;16.00;99.90;;;;;;5041780;28;20195;-47
2022/09/08 11:43:29;;;;;;;10.70;5.77;;;16.00;99.90;;;;;;5045329;28;20219;-51
2022/09/08 11:46:23;;;;;;;7.50;5.13;;;16.00;99.90;;;;;;5041275;28;20237;-51
2022/09/08 11:49:20;;;;;;;6.97;5.40;;;16.00;99.90;;;;;;5050292;28;20226;-50
2022/09/08 11:52:09;;;;;;;6.00;5.03;;;16.00;99.90;;;;;;5033414;28;20207;-50
2022/09/08 11:54:50;;;;;;;7.77;5.70;;;16.10;99.90;;;;;;5044169;28;20223;-50
2022/09/08 11:57:35;;;;;;;5.90;5.33;;;16.10;99.90;;;;;;5046238;28;20187;-46
2022/09/08 12:00:22;;;;;;;5.70;5.30;;;16.00;99.90;;;;;;5040787;28;20994;-52
2022/09/08 12:03:34;;;;;;;7.17;6.07;;;16.00;99.90;;;;;;5041368;28;20194;-51
2022/09/08 12:06:46;;;;;;;7.97;6.33;;;16.00;99.90;;;;;;5037441;28;20915;-49
2022/09/08 12:09:48;;;;;;;7.27;6.43;;;16.00;99.90;;;;;;5040218;28;20222;-47
2022/09/08 12:12:26;;;;;;;6.80;6.03;;;16.00;99.90;;;;;;5046186;28;20221;-54
2022/09/08 12:15:13;;;;;;;8.90;6.27;;;16.00;99.90;;;;;;5043949;28;20222;-49
2022/09/08 12:17:55;;;;;;;9.90;6.37;;;16.00;99.90;;;;;;5043604;28;20666;-50
2022/09/08 12:20:40;;;;;;;8.73;6.20;;;16.10;99.90;;;;;;5040604;28;20875;-49
2022/09/08 12:23:32;;;;;;;6.70;6.10;;;16.10;99.90;;;;;;5026962;28;20211;-51
2022/09/08 12:26:14;;;;;;;6.20;5.60;;;16.10;99.90;;;;;;5051877;28;20282;-50
2022/09/08 12:29:13;;;;;;;6.60;6.03;;;16.10;99.90;;;;;;5043832;28;20195;-49
2022/09/08 12:31:51;;;;;;;6.63;5.93;;;16.10;99.90;;;;;;5053070;28;20215;-51
2022/09/08 12:34:59;;;;;;;7.33;6.60;;;16.00;99.90;;;;;;5048531;28;20223;-51
2022/09/08 12:37:36;;;;;;;6.30;5.80;;;16.10;99.90;;;;;;5031023;28;20203;-51
2022/09/08 12:40:19;;;;;;;7.73;5.93;;;16.00;99.90;;;;;;5042356;28;20198;-50
2022/09/08 12:43:09;;;;;;;9.03;6.30;;;16.00;99.90;;;;;;5046676;28;20198;-52
2022/09/08 12:45:53;;;;;;;10.73;6.20;;;15.90;99.90;;;;;;5056167;28;20205;-53
2022/09/08 12:48:30;;;;;;;7.03;6.40;;;15.90;99.90;;;;;;5053277;28;20197;-48
2022/09/08 12:51:06;;;;;;;7.17;6.40;;;15.80;99.90;;;;;;5047171;28;20194;-48
2022/09/08 12:54:07;;;;;;;7.00;6.40;;;15.80;99.90;;;;;;5033396;28;20233;-53
2022/09/08 12:56:43;;;;;;;7.77;6.70;;;15.80;99.90;;;;;;5050049;28;20203;-50
2022/09/08 12:59:25;;;;;;;8.43;6.70;;;15.80;99.90;;;;;;5050844;28;20199;-53
2022/09/08 13:02:03;;;;;;;9.47;6.60;;;15.70;99.90;;;;;;5046036;28;20589;-52
2022/09/08 13:04:52;;;;;;;6.90;6.40;;;15.70;99.90;;;;;;5038174;28;20211;-51
2022/09/08 13:07:29;;;;;;;8.80;6.27;;;15.70;99.90;;;;;;5050387;28;20563;-52
2022/09/08 13:10:14;;;;;;;7.53;6.50;;;15.70;99.90;;;;;;5038143;28;20288;-51
2022/09/08 13:13:26;;;;;;;7.47;6.77;;;15.70;99.90;;;;;;5051388;28;20194;-48
2022/09/08 13:15:59;;;;;;;6.20;5.60;;;15.70;99.90;;;;;;5050681;28;20278;-53
2022/09/08 13:18:31;;;;;;;7.83;6.40;;;15.70;99.90;;;;;;5053960;28;20198;-52
2022/09/08 13:21:10;;;;;;;5.73;5.23;;;15.60;99.90;;;;;;5043487;28;20618;-53
2022/09/08 13:23:45;;;;;;;6.33;5.73;;;15.60;99.90;;;;;;5039533;28;20211;-47
2022/09/08 13:26:34;;;;;;;5.57;5.07;;;15.60;99.90;;;;;;5042843;28;20202;-48
2022/09/08 13:29:23;;;;;;;6.40;5.70;;;15.50;99.90;;;;;;5041528;28;20657;-50
2022/09/08 13:31:58;;;;;;;6.33;5.83;;;15.60;99.90;;;;;;5056630;28;20202;-51
2022/09/08 13:34:45;;;;;;;8.87;5.50;;;15.50;99.90;;;;;;5044034;28;20827;-47